sensor_id;sensor_type;location;lat;lon;timestamp;P1;durP1;ratioP1;P2;durP2;ratioP2
19816;SDS011;68323;49.394;8.434;2023-11-19T00:01:26;5.27;;;3.17;;
19816;SDS011;68323;49.394;8.434;2023-11-19T00:03:52;4.00;;;3.13;;
19816;SDS011;68323;49.394;8.434;2023-11-19T00:06:18;5.50;;;2.83;;
19816;SDS011;68323;49.394;8.434;2023-11-19T00:08:44;5.93;;;3.70;;
19816;SDS011;68323;49.394;8.434;2023-11-19T00:11:09;4.33;;;2.93;;
19816;SDS011;68323;49.394;8.434;2023-11-19T00:13:35;5.23;;;3.13;;
19816;SDS011;68323;49.394;8.434;2023-11-19T00:16:01;4.83;;;3.00;;
19816;SDS011;68323;49.394;8.434;2023-11-19T00:18:29;6.17;;;3.20;;
19816;SDS011;68323;49.394;8.434;2023-11-19T00:20:54;3.53;;;2.70;;
19816;SDS011;68323;49.394;8.434;2023-11-19T00:23:20;3.53;;;2.70;;
19816;SDS011;68323;49.394;8.434;2023-11-19T00:25:45;3.30;;;2.53;;
19816;SDS011;68323;49.394;8.434;2023-11-19T00:28:12;5.93;;;2.67;;
19816;SDS011;68323;49.394;8.434;2023-11-19T00:30:38;5.83;;;2.80;;
19816;SDS011;68323;49.394;8.434;2023-11-19T00:33:05;3.00;;;2.10;;
19816;SDS011;68323;49.394;8.434;2023-11-19T00:35:31;2.73;;;2.10;;
19816;SDS011;68323;49.394;8.434;2023-11-19T00:37:57;2.63;;;1.70;;
19816;SDS011;68323;49.394;8.434;2023-11-19T00:40:23;2.77;;;1.80;;
19816;SDS011;68323;49.394;8.434;2023-11-19T00:42:49;3.50;;;2.30;;
19816;SDS011;68323;49.394;8.434;2023-11-19T00:45:15;5.37;;;3.00;;
19816;SDS011;68323;49.394;8.434;2023-11-19T00:47:40;2.07;;;1.60;;
19816;SDS011;68323;49.394;8.434;2023-11-19T00:50:06;2.67;;;1.63;;
19816;SDS011;68323;49.394;8.434;2023-11-19T00:52:37;2.57;;;1.83;;
19816;SDS011;68323;49.394;8.434;2023-11-19T00:55:03;2.93;;;1.90;;
19816;SDS011;68323;49.394;8.434;2023-11-19T00:57:30;5.23;;;2.37;;
19816;SDS011;68323;49.394;8.434;2023-11-19T00:59:58;3.33;;;1.70;;
19816;SDS011;68323;49.394;8.434;2023-11-19T01:02:24;26.53;;;2.63;;
19816;SDS011;68323;49.394;8.434;2023-11-19T01:04:49;21.20;;;2.90;;
19816;SDS011;68323;49.394;8.434;2023-11-19T01:07:15;3.37;;;1.67;;
19816;SDS011;68323;49.394;8.434;2023-11-19T01:09:41;1.53;;;1.40;;
19816;SDS011;68323;49.394;8.434;2023-11-19T01:12:07;2.50;;;1.73;;
19816;SDS011;68323;49.394;8.434;2023-11-19T01:14:34;1.83;;;1.50;;
19816;SDS011;68323;49.394;8.434;2023-11-19T01:17:00;2.70;;;2.10;;
19816;SDS011;68323;49.394;8.434;2023-11-19T01:19:26;9.63;;;2.73;;
19816;SDS011;68323;49.394;8.434;2023-11-19T01:21:53;3.30;;;1.70;;
19816;SDS011;68323;49.394;8.434;2023-11-19T01:24:19;5.43;;;1.60;;
19816;SDS011;68323;49.394;8.434;2023-11-19T01:26:45;1.80;;;1.40;;
19816;SDS011;68323;49.394;8.434;2023-11-19T01:29:12;1.53;;;1.13;;
19816;SDS011;68323;49.394;8.434;2023-11-19T01:31:39;1.17;;;1.07;;
19816;SDS011;68323;49.394;8.434;2023-11-19T01:34:05;100.13;;;4.07;;
19816;SDS011;68323;49.394;8.434;2023-11-19T01:36:32;7.30;;;1.10;;
19816;SDS011;68323;49.394;8.434;2023-11-19T01:38:57;3.37;;;1.30;;
19816;SDS011;68323;49.394;8.434;2023-11-19T01:41:23;1.30;;;1.07;;
19816;SDS011;68323;49.394;8.434;2023-11-19T01:43:49;2.07;;;1.33;;
19816;SDS011;68323;49.394;8.434;2023-11-19T01:46:15;3.37;;;1.07;;
19816;SDS011;68323;49.394;8.434;2023-11-19T01:48:42;1.40;;;1.00;;
19816;SDS011;68323;49.394;8.434;2023-11-19T01:51:10;1.00;;;0.90;;
19816;SDS011;68323;49.394;8.434;2023-11-19T01:53:37;2.97;;;1.10;;
19816;SDS011;68323;49.394;8.434;2023-11-19T01:56:06;1.60;;;0.90;;
19816;SDS011;68323;49.394;8.434;2023-11-19T01:58:35;1.70;;;1.10;;
19816;SDS011;68323;49.394;8.434;2023-11-19T02:01:05;2.13;;;1.10;;
19816;SDS011;68323;49.394;8.434;2023-11-19T02:03:32;2.43;;;1.20;;
19816;SDS011;68323;49.394;8.434;2023-11-19T02:05:58;2.97;;;1.00;;
19816;SDS011;68323;49.394;8.434;2023-11-19T02:08:27;2.10;;;1.00;;
19816;SDS011;68323;49.394;8.434;2023-11-19T02:10:54;1.40;;;1.00;;
19816;SDS011;68323;49.394;8.434;2023-11-19T02:13:26;1.10;;;1.00;;
19816;SDS011;68323;49.394;8.434;2023-11-19T02:15:52;1.37;;;1.00;;
19816;SDS011;68323;49.394;8.434;2023-11-19T02:20:48;1.80;;;1.30;;
19816;SDS011;68323;49.394;8.434;2023-11-19T02:23:15;3.03;;;1.37;;
19816;SDS011;68323;49.394;8.434;2023-11-19T02:25:41;2.80;;;1.00;;
19816;SDS011;68323;49.394;8.434;2023-11-19T02:28:10;1.93;;;1.00;;
19816;SDS011;68323;49.394;8.434;2023-11-19T02:30:36;1.80;;;0.90;;
19816;SDS011;68323;49.394;8.434;2023-11-19T02:33:02;1.47;;;1.10;;
19816;SDS011;68323;49.394;8.434;2023-11-19T02:35:30;0.80;;;0.80;;
19816;SDS011;68323;49.394;8.434;2023-11-19T02:37:57;1.60;;;0.90;;
19816;SDS011;68323;49.394;8.434;2023-11-19T02:40:26;1.00;;;0.83;;
19816;SDS011;68323;49.394;8.434;2023-11-19T02:42:52;1.10;;;1.00;;
19816;SDS011;68323;49.394;8.434;2023-11-19T02:45:19;1.30;;;1.17;;
19816;SDS011;68323;49.394;8.434;2023-11-19T02:47:44;1.73;;;1.00;;
19816;SDS011;68323;49.394;8.434;2023-11-19T02:50:10;1.20;;;1.00;;
19816;SDS011;68323;49.394;8.434;2023-11-19T02:52:40;1.70;;;1.30;;
19816;SDS011;68323;49.394;8.434;2023-11-19T02:55:06;1.20;;;1.10;;
19816;SDS011;68323;49.394;8.434;2023-11-19T02:57:34;2.43;;;1.17;;
19816;SDS011;68323;49.394;8.434;2023-11-19T03:00:00;2.30;;;1.70;;
19816;SDS011;68323;49.394;8.434;2023-11-19T03:02:26;1.20;;;1.10;;
19816;SDS011;68323;49.394;8.434;2023-11-19T03:04:58;1.30;;;1.20;;
19816;SDS011;68323;49.394;8.434;2023-11-19T03:07:25;2.43;;;1.40;;
19816;SDS011;68323;49.394;8.434;2023-11-19T03:09:50;1.50;;;1.10;;
19816;SDS011;68323;49.394;8.434;2023-11-19T03:12:15;1.43;;;1.20;;
19816;SDS011;68323;49.394;8.434;2023-11-19T03:14:41;2.43;;;1.30;;
19816;SDS011;68323;49.394;8.434;2023-11-19T03:17:07;1.50;;;1.30;;
19816;SDS011;68323;49.394;8.434;2023-11-19T03:19:34;1.30;;;1.20;;
19816;SDS011;68323;49.394;8.434;2023-11-19T03:22:01;1.97;;;1.40;;
19816;SDS011;68323;49.394;8.434;2023-11-19T03:24:27;1.90;;;1.40;;
19816;SDS011;68323;49.394;8.434;2023-11-19T03:26:52;1.47;;;1.37;;
19816;SDS011;68323;49.394;8.434;2023-11-19T03:29:18;3.30;;;1.70;;
19816;SDS011;68323;49.394;8.434;2023-11-19T03:31:43;3.30;;;1.63;;
19816;SDS011;68323;49.394;8.434;2023-11-19T03:34:09;2.00;;;1.80;;
19816;SDS011;68323;49.394;8.434;2023-11-19T03:36:35;3.87;;;1.60;;
19816;SDS011;68323;49.394;8.434;2023-11-19T03:39:01;1.97;;;1.67;;
19816;SDS011;68323;49.394;8.434;2023-11-19T03:41:28;3.77;;;2.10;;
19816;SDS011;68323;49.394;8.434;2023-11-19T03:43:53;2.03;;;1.80;;
19816;SDS011;68323;49.394;8.434;2023-11-19T03:46:19;2.80;;;1.93;;
19816;SDS011;68323;49.394;8.434;2023-11-19T03:48:46;4.10;;;2.00;;
19816;SDS011;68323;49.394;8.434;2023-11-19T03:51:12;3.87;;;2.00;;
19816;SDS011;68323;49.394;8.434;2023-11-19T03:53:41;4.53;;;2.20;;
19816;SDS011;68323;49.394;8.434;2023-11-19T03:56:10;2.73;;;2.00;;
19816;SDS011;68323;49.394;8.434;2023-11-19T03:58:37;2.30;;;1.80;;
19816;SDS011;68323;49.394;8.434;2023-11-19T04:01:03;3.43;;;2.30;;
19816;SDS011;68323;49.394;8.434;2023-11-19T04:03:29;2.03;;;1.80;;
19816;SDS011;68323;49.394;8.434;2023-11-19T04:05:55;1.80;;;1.70;;
19816;SDS011;68323;49.394;8.434;2023-11-19T04:08:21;2.27;;;1.80;;
19816;SDS011;68323;49.394;8.434;2023-11-19T04:10:46;2.27;;;1.90;;
19816;SDS011;68323;49.394;8.434;2023-11-19T04:13:12;2.00;;;1.80;;
19816;SDS011;68323;49.394;8.434;2023-11-19T04:15:38;2.30;;;1.90;;
19816;SDS011;68323;49.394;8.434;2023-11-19T04:18:03;3.20;;;1.47;;
19816;SDS011;68323;49.394;8.434;2023-11-19T04:20:29;2.80;;;1.83;;
19816;SDS011;68323;49.394;8.434;2023-11-19T04:22:54;2.83;;;1.60;;
19816;SDS011;68323;49.394;8.434;2023-11-19T04:25:21;1.80;;;1.60;;
19816;SDS011;68323;49.394;8.434;2023-11-19T04:27:46;2.27;;;1.90;;
19816;SDS011;68323;49.394;8.434;2023-11-19T04:30:13;2.17;;;1.77;;
19816;SDS011;68323;49.394;8.434;2023-11-19T04:32:38;3.93;;;1.80;;
19816;SDS011;68323;49.394;8.434;2023-11-19T04:35:04;2.40;;;1.70;;
19816;SDS011;68323;49.394;8.434;2023-11-19T04:37:31;3.63;;;2.53;;
19816;SDS011;68323;49.394;8.434;2023-11-19T04:39:57;2.10;;;1.83;;
19816;SDS011;68323;49.394;8.434;2023-11-19T04:42:22;2.07;;;1.63;;
19816;SDS011;68323;49.394;8.434;2023-11-19T04:44:49;3.30;;;1.90;;
19816;SDS011;68323;49.394;8.434;2023-11-19T04:47:14;2.13;;;1.83;;
19816;SDS011;68323;49.394;8.434;2023-11-19T04:49:40;1.90;;;1.70;;
19816;SDS011;68323;49.394;8.434;2023-11-19T04:52:09;3.13;;;1.80;;
19816;SDS011;68323;49.394;8.434;2023-11-19T04:54:35;2.73;;;1.97;;
19816;SDS011;68323;49.394;8.434;2023-11-19T04:57:00;2.40;;;1.90;;
19816;SDS011;68323;49.394;8.434;2023-11-19T04:59:26;4.77;;;2.10;;
19816;SDS011;68323;49.394;8.434;2023-11-19T05:01:52;2.97;;;1.90;;
19816;SDS011;68323;49.394;8.434;2023-11-19T05:04:18;4.13;;;2.10;;
19816;SDS011;68323;49.394;8.434;2023-11-19T05:06:43;3.90;;;1.70;;
19816;SDS011;68323;49.394;8.434;2023-11-19T05:09:09;2.60;;;2.03;;
19816;SDS011;68323;49.394;8.434;2023-11-19T05:11:37;3.80;;;2.07;;
19816;SDS011;68323;49.394;8.434;2023-11-19T05:14:04;4.00;;;1.97;;
19816;SDS011;68323;49.394;8.434;2023-11-19T05:16:30;3.67;;;2.23;;
19816;SDS011;68323;49.394;8.434;2023-11-19T05:18:55;3.10;;;2.10;;
19816;SDS011;68323;49.394;8.434;2023-11-19T05:21:21;2.67;;;2.30;;
19816;SDS011;68323;49.394;8.434;2023-11-19T05:23:47;4.67;;;2.30;;
19816;SDS011;68323;49.394;8.434;2023-11-19T05:26:19;4.30;;;2.20;;
19816;SDS011;68323;49.394;8.434;2023-11-19T05:28:46;4.13;;;1.97;;
19816;SDS011;68323;49.394;8.434;2023-11-19T05:31:12;3.73;;;1.97;;
19816;SDS011;68323;49.394;8.434;2023-11-19T05:33:38;3.13;;;1.70;;
19816;SDS011;68323;49.394;8.434;2023-11-19T05:36:04;4.47;;;2.10;;
19816;SDS011;68323;49.394;8.434;2023-11-19T05:38:30;3.10;;;1.90;;
19816;SDS011;68323;49.394;8.434;2023-11-19T05:40:55;2.63;;;2.03;;
19816;SDS011;68323;49.394;8.434;2023-11-19T05:43:22;3.67;;;1.90;;
19816;SDS011;68323;49.394;8.434;2023-11-19T05:45:47;3.30;;;2.00;;
19816;SDS011;68323;49.394;8.434;2023-11-19T05:48:13;6.00;;;1.90;;
19816;SDS011;68323;49.394;8.434;2023-11-19T05:50:39;4.47;;;1.90;;
19816;SDS011;68323;49.394;8.434;2023-11-19T05:53:04;3.07;;;2.00;;
19816;SDS011;68323;49.394;8.434;2023-11-19T05:55:33;4.13;;;2.07;;
19816;SDS011;68323;49.394;8.434;2023-11-19T05:58:00;2.63;;;1.90;;
19816;SDS011;68323;49.394;8.434;2023-11-19T06:00:25;5.97;;;2.07;;
19816;SDS011;68323;49.394;8.434;2023-11-19T06:02:51;6.93;;;2.50;;
19816;SDS011;68323;49.394;8.434;2023-11-19T06:05:17;7.20;;;2.20;;
19816;SDS011;68323;49.394;8.434;2023-11-19T06:07:43;3.97;;;2.30;;
19816;SDS011;68323;49.394;8.434;2023-11-19T06:10:09;5.50;;;2.20;;
19816;SDS011;68323;49.394;8.434;2023-11-19T06:12:36;2.70;;;2.13;;
19816;SDS011;68323;49.394;8.434;2023-11-19T06:15:06;2.37;;;2.00;;
19816;SDS011;68323;49.394;8.434;2023-11-19T06:17:33;2.60;;;1.80;;
19816;SDS011;68323;49.394;8.434;2023-11-19T06:19:59;2.13;;;1.60;;
19816;SDS011;68323;49.394;8.434;2023-11-19T06:22:24;3.47;;;1.80;;
19816;SDS011;68323;49.394;8.434;2023-11-19T06:24:50;3.33;;;1.90;;
19816;SDS011;68323;49.394;8.434;2023-11-19T06:27:15;2.17;;;1.50;;
19816;SDS011;68323;49.394;8.434;2023-11-19T06:29:41;5.90;;;1.80;;
19816;SDS011;68323;49.394;8.434;2023-11-19T06:32:07;2.67;;;1.63;;
19816;SDS011;68323;49.394;8.434;2023-11-19T06:34:33;8.43;;;1.83;;
19816;SDS011;68323;49.394;8.434;2023-11-19T06:36:59;5.43;;;1.80;;
19816;SDS011;68323;49.394;8.434;2023-11-19T06:39:24;2.33;;;1.67;;
19816;SDS011;68323;49.394;8.434;2023-11-19T06:41:50;4.13;;;1.80;;
19816;SDS011;68323;49.394;8.434;2023-11-19T06:44:16;3.50;;;1.50;;
19816;SDS011;68323;49.394;8.434;2023-11-19T06:46:42;2.97;;;2.00;;
19816;SDS011;68323;49.394;8.434;2023-11-19T06:49:08;4.60;;;2.40;;
19816;SDS011;68323;49.394;8.434;2023-11-19T06:51:34;1.97;;;1.50;;
19816;SDS011;68323;49.394;8.434;2023-11-19T06:53:59;5.20;;;2.23;;
19816;SDS011;68323;49.394;8.434;2023-11-19T06:56:26;3.27;;;1.57;;
19816;SDS011;68323;49.394;8.434;2023-11-19T06:58:51;2.97;;;1.50;;
19816;SDS011;68323;49.394;8.434;2023-11-19T07:01:18;2.83;;;1.63;;
19816;SDS011;68323;49.394;8.434;2023-11-19T07:03:44;2.40;;;1.80;;
19816;SDS011;68323;49.394;8.434;2023-11-19T07:06:11;2.00;;;1.40;;
19816;SDS011;68323;49.394;8.434;2023-11-19T07:08:38;3.17;;;1.57;;
19816;SDS011;68323;49.394;8.434;2023-11-19T07:11:04;3.30;;;1.60;;
19816;SDS011;68323;49.394;8.434;2023-11-19T07:13:29;1.50;;;1.03;;
19816;SDS011;68323;49.394;8.434;2023-11-19T07:15:58;2.30;;;1.30;;
19816;SDS011;68323;49.394;8.434;2023-11-19T07:18:23;3.20;;;1.70;;
19816;SDS011;68323;49.394;8.434;2023-11-19T07:20:50;3.40;;;1.17;;
19816;SDS011;68323;49.394;8.434;2023-11-19T07:23:15;5.43;;;3.47;;
19816;SDS011;68323;49.394;8.434;2023-11-19T07:25:42;6.47;;;4.43;;
19816;SDS011;68323;49.394;8.434;2023-11-19T07:28:08;12.10;;;7.13;;
19816;SDS011;68323;49.394;8.434;2023-11-19T07:30:34;11.30;;;6.37;;
19816;SDS011;68323;49.394;8.434;2023-11-19T07:33:00;13.47;;;7.97;;
19816;SDS011;68323;49.394;8.434;2023-11-19T07:35:28;11.17;;;5.50;;
19816;SDS011;68323;49.394;8.434;2023-11-19T07:37:55;17.33;;;8.93;;
19816;SDS011;68323;49.394;8.434;2023-11-19T07:40:21;15.90;;;8.03;;
19816;SDS011;68323;49.394;8.434;2023-11-19T07:42:47;9.00;;;3.67;;
19816;SDS011;68323;49.394;8.434;2023-11-19T07:45:12;11.27;;;5.30;;
19816;SDS011;68323;49.394;8.434;2023-11-19T07:47:38;4.37;;;2.83;;
19816;SDS011;68323;49.394;8.434;2023-11-19T07:50:04;5.33;;;3.67;;
19816;SDS011;68323;49.394;8.434;2023-11-19T07:52:29;4.60;;;2.10;;
19816;SDS011;68323;49.394;8.434;2023-11-19T07:54:55;5.37;;;1.93;;
19816;SDS011;68323;49.394;8.434;2023-11-19T07:57:20;3.17;;;1.63;;
19816;SDS011;68323;49.394;8.434;2023-11-19T07:59:46;3.03;;;1.60;;
19816;SDS011;68323;49.394;8.434;2023-11-19T08:02:12;2.43;;;1.77;;
19816;SDS011;68323;49.394;8.434;2023-11-19T08:04:37;2.00;;;1.40;;
19816;SDS011;68323;49.394;8.434;2023-11-19T08:07:04;2.73;;;1.70;;
19816;SDS011;68323;49.394;8.434;2023-11-19T08:09:30;5.33;;;2.00;;
19816;SDS011;68323;49.394;8.434;2023-11-19T08:11:56;3.17;;;1.80;;
19816;SDS011;68323;49.394;8.434;2023-11-19T08:14:22;4.47;;;1.63;;
19816;SDS011;68323;49.394;8.434;2023-11-19T08:16:48;2.70;;;1.90;;
19816;SDS011;68323;49.394;8.434;2023-11-19T08:19:13;9.07;;;2.00;;
19816;SDS011;68323;49.394;8.434;2023-11-19T08:21:39;3.00;;;1.73;;
19816;SDS011;68323;49.394;8.434;2023-11-19T08:24:05;6.63;;;4.27;;
19816;SDS011;68323;49.394;8.434;2023-11-19T08:26:32;9.87;;;3.10;;
19816;SDS011;68323;49.394;8.434;2023-11-19T08:29:01;3.07;;;1.90;;
19816;SDS011;68323;49.394;8.434;2023-11-19T08:31:28;3.87;;;1.60;;
19816;SDS011;68323;49.394;8.434;2023-11-19T08:33:54;2.70;;;1.20;;
19816;SDS011;68323;49.394;8.434;2023-11-19T08:36:20;3.10;;;0.93;;
19816;SDS011;68323;49.394;8.434;2023-11-19T08:38:46;4.00;;;1.03;;
19816;SDS011;68323;49.394;8.434;2023-11-19T08:41:13;5.40;;;0.90;;
19816;SDS011;68323;49.394;8.434;2023-11-19T08:43:39;2.17;;;0.67;;
19816;SDS011;68323;49.394;8.434;2023-11-19T08:46:10;2.30;;;0.90;;
19816;SDS011;68323;49.394;8.434;2023-11-19T08:48:36;3.23;;;1.10;;
19816;SDS011;68323;49.394;8.434;2023-11-19T08:51:02;5.97;;;2.67;;
19816;SDS011;68323;49.394;8.434;2023-11-19T08:53:29;6.63;;;3.03;;
19816;SDS011;68323;49.394;8.434;2023-11-19T08:55:55;3.13;;;1.60;;
19816;SDS011;68323;49.394;8.434;2023-11-19T08:58:20;4.30;;;1.40;;
19816;SDS011;68323;49.394;8.434;2023-11-19T09:00:46;4.00;;;1.80;;
19816;SDS011;68323;49.394;8.434;2023-11-19T09:03:12;9.33;;;4.67;;
19816;SDS011;68323;49.394;8.434;2023-11-19T09:05:37;4.10;;;1.20;;
19816;SDS011;68323;49.394;8.434;2023-11-19T09:08:03;5.37;;;1.10;;
19816;SDS011;68323;49.394;8.434;2023-11-19T09:10:29;3.60;;;1.60;;
19816;SDS011;68323;49.394;8.434;2023-11-19T09:12:54;3.20;;;1.53;;
19816;SDS011;68323;49.394;8.434;2023-11-19T09:15:20;2.97;;;0.90;;
19816;SDS011;68323;49.394;8.434;2023-11-19T09:17:45;4.60;;;1.40;;
19816;SDS011;68323;49.394;8.434;2023-11-19T09:20:11;3.43;;;1.30;;
19816;SDS011;68323;49.394;8.434;2023-11-19T09:22:39;3.00;;;1.20;;
19816;SDS011;68323;49.394;8.434;2023-11-19T09:25:05;2.67;;;0.93;;
19816;SDS011;68323;49.394;8.434;2023-11-19T09:27:31;6.27;;;1.20;;
19816;SDS011;68323;49.394;8.434;2023-11-19T09:29:57;2.60;;;1.00;;
19816;SDS011;68323;49.394;8.434;2023-11-19T09:32:23;3.20;;;1.20;;
19816;SDS011;68323;49.394;8.434;2023-11-19T09:34:49;6.13;;;1.30;;
19816;SDS011;68323;49.394;8.434;2023-11-19T09:37:15;2.40;;;0.90;;
19816;SDS011;68323;49.394;8.434;2023-11-19T09:39:40;5.07;;;0.90;;
19816;SDS011;68323;49.394;8.434;2023-11-19T09:42:09;2.90;;;1.10;;
19816;SDS011;68323;49.394;8.434;2023-11-19T09:44:36;6.20;;;1.10;;
19816;SDS011;68323;49.394;8.434;2023-11-19T09:47:04;2.43;;;1.10;;
19816;SDS011;68323;49.394;8.434;2023-11-19T09:49:31;6.03;;;1.30;;
19816;SDS011;68323;49.394;8.434;2023-11-19T09:52:00;2.53;;;1.30;;
19816;SDS011;68323;49.394;8.434;2023-11-19T09:54:26;2.17;;;1.07;;
19816;SDS011;68323;49.394;8.434;2023-11-19T09:56:52;3.07;;;1.00;;
19816;SDS011;68323;49.394;8.434;2023-11-19T09:59:18;3.57;;;1.20;;
19816;SDS011;68323;49.394;8.434;2023-11-19T10:01:45;3.63;;;1.57;;
19816;SDS011;68323;49.394;8.434;2023-11-19T10:04:10;4.53;;;1.10;;
19816;SDS011;68323;49.394;8.434;2023-11-19T10:06:40;4.40;;;1.40;;
19816;SDS011;68323;49.394;8.434;2023-11-19T10:09:07;4.03;;;1.43;;
19816;SDS011;68323;49.394;8.434;2023-11-19T10:11:32;5.63;;;2.30;;
19816;SDS011;68323;49.394;8.434;2023-11-19T10:13:58;7.07;;;2.53;;
19816;SDS011;68323;49.394;8.434;2023-11-19T10:16:28;3.67;;;1.30;;
19816;SDS011;68323;49.394;8.434;2023-11-19T10:18:55;2.60;;;1.00;;
19816;SDS011;68323;49.394;8.434;2023-11-19T10:21:21;4.57;;;1.20;;
19816;SDS011;68323;49.394;8.434;2023-11-19T10:23:47;7.07;;;1.40;;
19816;SDS011;68323;49.394;8.434;2023-11-19T10:26:22;4.03;;;0.93;;
19816;SDS011;68323;49.394;8.434;2023-11-19T10:28:48;3.10;;;1.00;;
19816;SDS011;68323;49.394;8.434;2023-11-19T10:31:18;2.00;;;1.07;;
19816;SDS011;68323;49.394;8.434;2023-11-19T10:33:49;4.07;;;1.37;;
19816;SDS011;68323;49.394;8.434;2023-11-19T10:36:15;2.27;;;1.10;;
19816;SDS011;68323;49.394;8.434;2023-11-19T10:38:51;4.30;;;1.40;;
19816;SDS011;68323;49.394;8.434;2023-11-19T10:41:27;2.97;;;1.30;;
19816;SDS011;68323;49.394;8.434;2023-11-19T10:43:53;2.27;;;1.23;;
19816;SDS011;68323;49.394;8.434;2023-11-19T10:46:19;5.30;;;1.60;;
19816;SDS011;68323;49.394;8.434;2023-11-19T10:48:48;4.00;;;1.20;;
19816;SDS011;68323;49.394;8.434;2023-11-19T10:51:13;3.13;;;1.97;;
19816;SDS011;68323;49.394;8.434;2023-11-19T10:53:46;5.57;;;3.57;;
19816;SDS011;68323;49.394;8.434;2023-11-19T10:56:15;3.43;;;1.23;;
19816;SDS011;68323;49.394;8.434;2023-11-19T10:58:45;2.47;;;1.10;;
19816;SDS011;68323;49.394;8.434;2023-11-19T11:01:13;3.17;;;1.20;;
19816;SDS011;68323;49.394;8.434;2023-11-19T11:03:48;3.77;;;1.37;;
19816;SDS011;68323;49.394;8.434;2023-11-19T11:06:18;3.73;;;1.10;;
19816;SDS011;68323;49.394;8.434;2023-11-19T11:08:46;4.47;;;1.10;;
19816;SDS011;68323;49.394;8.434;2023-11-19T11:11:13;3.80;;;1.20;;
19816;SDS011;68323;49.394;8.434;2023-11-19T11:13:42;3.07;;;1.20;;
19816;SDS011;68323;49.394;8.434;2023-11-19T11:16:09;4.80;;;1.30;;
19816;SDS011;68323;49.394;8.434;2023-11-19T11:18:36;2.57;;;1.27;;
19816;SDS011;68323;49.394;8.434;2023-11-19T11:21:03;5.57;;;1.30;;
19816;SDS011;68323;49.394;8.434;2023-11-19T11:29:24;3.60;;;1.40;;
19816;SDS011;68323;49.394;8.434;2023-11-19T11:34:53;4.80;;;1.40;;
19816;SDS011;68323;49.394;8.434;2023-11-19T11:37:45;5.40;;;3.10;;
19816;SDS011;68323;49.394;8.434;2023-11-19T11:40:15;5.97;;;2.70;;
19816;SDS011;68323;49.394;8.434;2023-11-19T11:42:41;4.70;;;2.47;;
19816;SDS011;68323;49.394;8.434;2023-11-19T11:45:11;6.80;;;2.93;;
19816;SDS011;68323;49.394;8.434;2023-11-19T11:50:13;6.13;;;2.77;;
19816;SDS011;68323;49.394;8.434;2023-11-19T11:55:24;3.73;;;1.70;;
19816;SDS011;68323;49.394;8.434;2023-11-19T11:57:53;4.17;;;2.30;;
19816;SDS011;68323;49.394;8.434;2023-11-19T12:03:00;5.00;;;1.67;;
19816;SDS011;68323;49.394;8.434;2023-11-19T12:05:26;4.43;;;1.00;;
19816;SDS011;68323;49.394;8.434;2023-11-19T12:07:56;5.70;;;2.13;;
19816;SDS011;68323;49.394;8.434;2023-11-19T12:10:25;3.60;;;1.23;;
19816;SDS011;68323;49.394;8.434;2023-11-19T12:12:57;4.97;;;2.20;;
19816;SDS011;68323;49.394;8.434;2023-11-19T12:15:23;15.57;;;7.30;;
19816;SDS011;68323;49.394;8.434;2023-11-19T12:17:51;4.70;;;2.17;;
19816;SDS011;68323;49.394;8.434;2023-11-19T12:20:18;10.43;;;3.30;;
19816;SDS011;68323;49.394;8.434;2023-11-19T12:22:45;23.63;;;11.97;;
19816;SDS011;68323;49.394;8.434;2023-11-19T12:25:14;7.23;;;3.03;;
19816;SDS011;68323;49.394;8.434;2023-11-19T12:27:41;30.60;;;13.67;;
19816;SDS011;68323;49.394;8.434;2023-11-19T12:30:32;24.37;;;11.17;;
19816;SDS011;68323;49.394;8.434;2023-11-19T12:32:58;22.23;;;8.33;;
19816;SDS011;68323;49.394;8.434;2023-11-19T12:35:24;9.23;;;3.87;;
19816;SDS011;68323;49.394;8.434;2023-11-19T12:37:50;24.30;;;12.20;;
19816;SDS011;68323;49.394;8.434;2023-11-19T12:42:46;16.33;;;8.43;;
19816;SDS011;68323;49.394;8.434;2023-11-19T12:45:13;13.97;;;6.87;;
19816;SDS011;68323;49.394;8.434;2023-11-19T12:47:39;8.30;;;4.43;;
19816;SDS011;68323;49.394;8.434;2023-11-19T12:50:05;5.33;;;2.80;;
19816;SDS011;68323;49.394;8.434;2023-11-19T12:52:33;6.87;;;2.00;;
19816;SDS011;68323;49.394;8.434;2023-11-19T12:54:59;7.40;;;3.10;;
19816;SDS011;68323;49.394;8.434;2023-11-19T12:57:40;7.57;;;3.07;;
19816;SDS011;68323;49.394;8.434;2023-11-19T13:00:06;13.50;;;4.30;;
19816;SDS011;68323;49.394;8.434;2023-11-19T13:02:46;4.83;;;1.43;;
19816;SDS011;68323;49.394;8.434;2023-11-19T13:05:23;6.97;;;2.73;;
19816;SDS011;68323;49.394;8.434;2023-11-19T13:07:49;5.40;;;1.63;;
19816;SDS011;68323;49.394;8.434;2023-11-19T13:10:15;5.47;;;1.70;;
19816;SDS011;68323;49.394;8.434;2023-11-19T13:12:40;6.07;;;1.90;;
19816;SDS011;68323;49.394;8.434;2023-11-19T13:15:06;4.80;;;2.40;;
19816;SDS011;68323;49.394;8.434;2023-11-19T13:17:47;4.17;;;1.70;;
19816;SDS011;68323;49.394;8.434;2023-11-19T13:20:12;3.67;;;1.57;;
19816;SDS011;68323;49.394;8.434;2023-11-19T13:22:39;5.33;;;1.10;;
19816;SDS011;68323;49.394;8.434;2023-11-19T13:25:18;5.33;;;1.00;;
19816;SDS011;68323;49.394;8.434;2023-11-19T13:27:45;3.13;;;1.17;;
19816;SDS011;68323;49.394;8.434;2023-11-19T13:30:11;3.73;;;1.10;;
19816;SDS011;68323;49.394;8.434;2023-11-19T13:32:37;3.77;;;0.90;;
19816;SDS011;68323;49.394;8.434;2023-11-19T13:35:04;9.03;;;1.70;;
19816;SDS011;68323;49.394;8.434;2023-11-19T13:37:30;6.03;;;1.10;;
19816;SDS011;68323;49.394;8.434;2023-11-19T13:39:56;18.33;;;8.43;;
19816;SDS011;68323;49.394;8.434;2023-11-19T13:42:21;10.10;;;6.87;;
19816;SDS011;68323;49.394;8.434;2023-11-19T13:44:47;5.30;;;2.73;;
19816;SDS011;68323;49.394;8.434;2023-11-19T13:47:12;4.33;;;1.33;;
19816;SDS011;68323;49.394;8.434;2023-11-19T13:49:38;4.80;;;1.07;;
19816;SDS011;68323;49.394;8.434;2023-11-19T13:52:04;2.27;;;0.90;;
19816;SDS011;68323;49.394;8.434;2023-11-19T13:54:30;4.40;;;1.00;;
19816;SDS011;68323;49.394;8.434;2023-11-19T13:56:56;2.93;;;0.90;;
19816;SDS011;68323;49.394;8.434;2023-11-19T13:59:25;2.43;;;0.80;;
19816;SDS011;68323;49.394;8.434;2023-11-19T14:01:52;2.90;;;0.90;;
19816;SDS011;68323;49.394;8.434;2023-11-19T14:04:17;3.67;;;0.90;;
19816;SDS011;68323;49.394;8.434;2023-11-19T14:06:44;6.00;;;1.07;;
19816;SDS011;68323;49.394;8.434;2023-11-19T14:09:10;4.20;;;1.13;;
19816;SDS011;68323;49.394;8.434;2023-11-19T14:11:36;3.83;;;0.90;;
19816;SDS011;68323;49.394;8.434;2023-11-19T14:14:01;4.80;;;1.10;;
19816;SDS011;68323;49.394;8.434;2023-11-19T14:16:27;3.73;;;1.00;;
19816;SDS011;68323;49.394;8.434;2023-11-19T14:18:52;6.30;;;1.00;;
19816;SDS011;68323;49.394;8.434;2023-11-19T14:21:19;6.67;;;1.20;;
19816;SDS011;68323;49.394;8.434;2023-11-19T14:23:45;5.33;;;1.23;;
19816;SDS011;68323;49.394;8.434;2023-11-19T14:26:11;3.40;;;1.07;;
19816;SDS011;68323;49.394;8.434;2023-11-19T14:28:37;6.03;;;1.03;;
19816;SDS011;68323;49.394;8.434;2023-11-19T14:31:03;5.83;;;1.30;;
19816;SDS011;68323;49.394;8.434;2023-11-19T14:33:29;5.90;;;1.20;;
19816;SDS011;68323;49.394;8.434;2023-11-19T14:35:54;6.20;;;1.10;;
19816;SDS011;68323;49.394;8.434;2023-11-19T14:38:20;3.63;;;0.97;;
19816;SDS011;68323;49.394;8.434;2023-11-19T14:40:45;6.00;;;1.27;;
19816;SDS011;68323;49.394;8.434;2023-11-19T14:43:11;3.60;;;1.13;;
19816;SDS011;68323;49.394;8.434;2023-11-19T14:45:36;4.17;;;1.10;;
19816;SDS011;68323;49.394;8.434;2023-11-19T14:48:02;3.93;;;1.03;;
19816;SDS011;68323;49.394;8.434;2023-11-19T14:50:28;3.70;;;1.20;;
19816;SDS011;68323;49.394;8.434;2023-11-19T14:52:54;6.10;;;1.20;;
19816;SDS011;68323;49.394;8.434;2023-11-19T14:55:19;5.40;;;1.83;;
19816;SDS011;68323;49.394;8.434;2023-11-19T14:57:45;4.37;;;1.13;;
19816;SDS011;68323;49.394;8.434;2023-11-19T15:00:10;3.10;;;1.33;;
19816;SDS011;68323;49.394;8.434;2023-11-19T15:02:40;4.23;;;1.00;;
19816;SDS011;68323;49.394;8.434;2023-11-19T15:05:07;4.17;;;1.10;;